Time,TemperatureF,DewpointF,PressureIn,WindDirection,WindDirectionDegrees,WindSpeedMPH,WindSpeedGustMPH,Humidity,HourlyPrecipIn,Conditions,Clouds,dailyrainin,SoftwareType,DateUTC
2013-03-31 00:00:00,46.3,40.1,30.11,SW,221,0.0,0.0,79,0.00,BKN,,0.00,WeatherDisplay:10.37,2013-03-31 04:00:00,
2013-03-31 00:01:00,46.3,40.1,30.11,SW,221,1.0,0.0,79,0.00,BKN,,0.00,WeatherDisplay:10.37,2013-03-31 04:01:00,
2013-03-31 00:06:00,46.3,40.1,30.11,SW,221,0.0,0.0,79,0.00,BKN,,0.00,WeatherDisplay:10.37,2013-03-31 04:06:00,
2013-03-31 00:11:00,46.3,39.8,30.11,SW,221,0.0,0.0,78,0.00,BKN,,0.00,WeatherDisplay:10.37,2013-03-31 04:11:00,
2013-03-31 00:16:00,46.5,40.0,30.11,SW,221,0.0,0.0,78,0.00,BKN,,0.00,WeatherDisplay:10.37,2013-03-31 04:16:00,
2013-03-31 00:21:00,46.3,39.8,30.10,SW,222,0.0,0.0,78,0.00,BKN,,0.00,WeatherDisplay:10.37,2013-03-31 04:21:00,
2013-03-31 00:26:00,46.3,40.1,30.10,SW,221,0.0,0.0,79,0.00,BKN,,0.00,WeatherDisplay:10.37,2013-03-31 04:26:00,
2013-03-31 00:31:00,46.4,40.2,30.10,SW,221,0.0,0.0,79,0.00,BKN,,0.00,WeatherDisplay:10.37,2013-03-31 04:31:00,
2013-03-31 00:36:00,45.9,40.1,30.10,SW,221,0.0,0.0,80,0.00,BKN,,0.00,WeatherDisplay:10.37,2013-03-31 04:36:00,
2013-03-31 00:41:00,45.8,40.3,30.10,SW,221,0.0,0.0,81,0.00,BKN,,0.00,WeatherDisplay:10.37,2013-03-31 04:41:00,
2013-03-31 00:46:00,46.0,40.8,30.10,SW,221,0.0,0.0,82,0.00,BKN,,0.00,WeatherDisplay:10.37,2013-03-31 04:46:00,
2013-03-31 00:51:00,46.7,41.2,30.10,SW,221,0.0,0.0,81,0.00,BKN,,0.00,WeatherDisplay:10.37,2013-03-31 04:51:00,
2013-03-31 00:56:00,46.5,41.0,30.10,SW,221,0.0,0.0,81,0.00,BKN,,0.00,WeatherDisplay:10.37,2013-03-31 04:56:00,
2013-03-31 01:01:00,46.6,41.1,30.10,SW,221,2.3,0.0,81,0.00,BKN,,0.00,WeatherDisplay:10.37,2013-03-31 05:01:00,
2013-03-31 01:06:00,46.9,41.4,30.10,SW,221,0.0,0.0,81,0.00,OVC,,0.00,WeatherDisplay:10.37,2013-03-31 05:06:00,
2013-03-31 01:11:00,47.2,41.7,30.10,SW,221,2.3,2.3,81,0.00,OVC,,0.00,WeatherDisplay:10.37,2013-03-31 05:11:00,
2013-03-31 01:16:00,47.4,41.9,30.10,SW,221,1.0,0.0,81,0.00,OVC,,0.00,WeatherDisplay:10.37,2013-03-31 05:16:00,
2013-03-31 01:21:00,47.7,42.2,30.10,SW,221,0.0,0.0,81,0.00,OVC,,0.00,WeatherDisplay:10.37,2013-03-31 05:21:00,
2013-03-31 01:26:00,47.5,42.0,30.09,SW,221,1.1,1.1,81,0.00,OVC,,0.00,WeatherDisplay:10.37,2013-03-31 05:26:00,
2013-03-31 01:31:00,47.5,42.0,30.09,SW,221,0.0,0.0,81,0.00,OVC,,0.00,WeatherDisplay:10.37,2013-03-31 05:31:00,
2013-03-31 01:36:00,46.8,41.6,30.09,SW,221,0.0,0.0,82,0.00,OVC,,0.00,WeatherDisplay:10.37,2013-03-31 05:36:00,
2013-03-31 01:41:00,47.1,42.5,30.09,SW,221,1.1,0.0,84,0.00,OVC,,0.00,WeatherDisplay:10.37,2013-03-31 05:41:00,
2013-03-31 01:46:00,47.8,42.6,30.09,SW,221,0.0,0.0,82,0.00,OVC,,0.00,WeatherDisplay:10.37,2013-03-31 05:46:00,
2013-03-31 01:51:00,47.6,42.1,30.09,SW,221,2.3,2.3,81,0.00,OVC,,0.00,WeatherDisplay:10.37,2013-03-31 05:51:00,
2013-03-31 01:56:00,47.5,42.3,30.09,SW,221,0.0,0.0,82,0.00,OVC,,0.00,WeatherDisplay:10.37,2013-03-31 05:56:00,
2013-03-31 02:01:00,47.0,42.4,30.08,SW,221,0.0,0.0,84,0.00,OVC,,0.00,WeatherDisplay:10.37,2013-03-31 06:01:00,
2013-03-31 02:07:00,47.0,42.4,30.08,SW,221,0.0,0.0,84,0.00,OVC,,0.00,WeatherDisplay:10.37,2013-03-31 06:07:00,
2013-03-31 02:12:00,47.5,43.2,30.08,SW,221,0.0,0.0,85,0.00,OVC,,0.00,WeatherDisplay:10.37,2013-03-31 06:12:00,
2013-03-31 02:17:00,47.2,42.9,30.08,SW,221,0.0,0.0,85,0.00,OVC,,0.00,WeatherDisplay:10.37,2013-03-31 06:17:00,
2013-03-31 02:22:00,46.8,42.5,30.08,SW,221,0.0,0.0,85,0.00,OVC,,0.00,WeatherDisplay:10.37,2013-03-31 06:22:00,
2013-03-31 02:27:00,46.6,42.3,30.08,SW,221,0.0,0.0,85,0.00,OVC,,0.00,WeatherDisplay:10.37,2013-03-31 06:27:00,
2013-03-31 02:32:00,46.4,42.4,30.08,SW,221,0.0,0.0,86,0.00,OVC,,0.00,WeatherDisplay:10.37,2013-03-31 06:32:00,
2013-03-31 02:37:00,46.3,42.6,30.07,SW,221,0.0,0.0,87,0.00,OVC,,0.00,WeatherDisplay:10.37,2013-03-31 06:37:00,
2013-03-31 02:42:00,46.2,42.5,30.07,SW,221,0.0,0.0,87,0.00,OVC,,0.00,WeatherDisplay:10.37,2013-03-31 06:42:00,
2013-03-31 02:47:00,46.2,42.5,30.07,SW,221,0.0,0.0,87,0.00,OVC,,0.00,WeatherDisplay:10.37,2013-03-31 06:47:00,
2013-03-31 02:52:00,46.2,42.5,30.07,SW,221,0.0,0.0,87,0.00,OVC,,0.00,WeatherDisplay:10.37,2013-03-31 06:52:00,
2013-03-31 02:57:00,46.7,43.3,30.07,SW,221,1.1,0.0,88,0.00,OVC,,0.00,WeatherDisplay:10.37,2013-03-31 06:57:00,
2013-03-31 03:02:00,47.1,43.4,30.07,SW,221,2.3,2.3,87,0.00,OVC,,0.00,WeatherDisplay:10.37,2013-03-31 07:02:00,
2013-03-31 03:08:00,47.2,43.5,30.06,SW,221,0.0,0.0,87,0.00,OVC,,0.00,WeatherDisplay:10.37,2013-03-31 07:08:00,
2013-03-31 03:13:00,47.5,43.8,30.06,SW,221,0.0,0.0,87,0.00,OVC,,0.00,WeatherDisplay:10.37,2013-03-31 07:13:00,
2013-03-31 03:18:00,47.9,43.9,30.06,SW,221,3.5,3.5,86,0.00,OVC,,0.00,WeatherDisplay:10.37,2013-03-31 07:18:00,
2013-03-31 03:23:00,48.0,44.0,30.06,SW,219,4.0,4.0,86,0.00,OVC,,0.00,WeatherDisplay:10.37,2013-03-31 07:23:00,
2013-03-31 03:28:00,48.2,44.2,30.06,SW,219,3.0,3.0,86,0.00,OVC,,0.00,WeatherDisplay:10.37,2013-03-31 07:28:00,
2013-03-31 03:33:00,48.1,43.8,30.06,SW,219,3.5,3.5,85,0.00,OVC,,0.00,WeatherDisplay:10.37,2013-03-31 07:33:00,
2013-03-31 03:38:00,48.3,44.0,30.05,SW,218,1.1,1.1,85,0.00,OVC,,0.00,WeatherDisplay:10.37,2013-03-31 07:38:00,
2013-03-31 03:43:00,48.5,44.2,30.05,SW,219,0.0,0.0,85,0.00,OVC,,0.00,WeatherDisplay:10.37,2013-03-31 07:43:00,
2013-03-31 03:48:00,48.3,43.7,30.05,SW,218,0.0,0.0,84,0.00,OVC,,0.00,WeatherDisplay:10.37,2013-03-31 07:48:00,
2013-03-31 03:53:00,47.9,43.9,30.05,SW,218,3.5,3.5,86,0.00,OVC,,0.00,WeatherDisplay:10.37,2013-03-31 07:53:00,
2013-03-31 03:58:00,47.9,43.9,30.05,SW,218,0.0,0.0,86,0.00,OVC,,0.00,WeatherDisplay:10.37,2013-03-31 07:58:00,
2013-03-31 04:04:00,47.9,43.9,30.05,SW,218,0.0,0.0,86,0.00,OVC,,0.00,WeatherDisplay:10.37,2013-03-31 08:04:00,
2013-03-31 04:09:00,47.9,43.9,30.04,SW,218,0.0,0.0,86,0.00,OVC,,0.00,WeatherDisplay:10.37,2013-03-31 08:09:00,
2013-03-31 04:14:00,48.1,43.8,30.04,SSW,213,2.3,2.3,85,0.00,OVC,,0.00,WeatherDisplay:10.37,2013-03-31 08:14:00,
2013-03-31 04:19:00,48.2,43.9,30.03,SSW,208,3.5,3.5,85,0.00,OVC,,0.00,WeatherDisplay:10.37,2013-03-31 08:19:00,
2013-03-31 04:24:00,48.5,44.2,30.03,SSW,208,3.5,3.5,85,0.00,OVC,,0.00,WeatherDisplay:10.37,2013-03-31 08:24:00,
2013-03-31 04:29:00,48.4,43.8,30.03,SSW,208,3.5,3.5,84,0.00,OVC,,0.00,WeatherDisplay:10.37,2013-03-31 08:29:00,
2013-03-31 04:34:00,48.3,43.7,30.03,SSW,207,1.0,0.0,84,0.00,OVC,,0.00,WeatherDisplay:10.37,2013-03-31 08:34:00,
2013-03-31 04:39:00,48.2,43.9,30.03,SSW,208,2.3,2.3,85,0.00,OVC,,0.00,WeatherDisplay:10.37,2013-03-31 08:39:00,
2013-03-31 04:44:00,48.3,44.0,30.02,SSW,207,3.5,3.5,85,0.00,OVC,,0.00,WeatherDisplay:10.37,2013-03-31 08:44:00,
2013-03-31 04:49:00,48.5,43.9,30.02,SSW,199,3.5,3.5,84,0.00,OVC,,0.00,WeatherDisplay:10.37,2013-03-31 08:49:00,
2013-03-31 04:54:00,48.6,44.0,30.02,SSW,199,2.0,2.0,84,0.00,OVC,,0.00,WeatherDisplay:10.37,2013-03-31 08:54:00,
2013-03-31 04:59:00,48.6,44.0,30.02,SSW,198,3.5,3.5,84,0.00,OVC,,0.00,WeatherDisplay:10.37,2013-03-31 08:59:00,
2013-03-31 05:04:00,48.7,43.5,30.01,SSW,198,3.5,3.5,82,0.00,OVC,,0.00,WeatherDisplay:10.37,2013-03-31 09:04:00,
2013-03-31 05:09:00,48.5,43.3,30.01,SSW,198,3.5,3.5,82,0.00,OVC,,0.00,WeatherDisplay:10.37,2013-03-31 09:09:00,
2013-03-31 05:14:00,48.3,43.7,30.01,SSW,198,2.3,2.3,84,0.00,OVC,,0.00,WeatherDisplay:10.37,2013-03-31 09:14:00,
2013-03-31 05:19:00,48.2,43.6,30.00,SSW,198,1.0,1.0,84,0.00,OVC,,0.00,WeatherDisplay:10.37,2013-03-31 09:19:00,
2013-03-31 05:24:00,48.1,43.8,30.00,SSW,198,3.5,3.5,85,0.00,OVC,,0.00,WeatherDisplay:10.37,2013-03-31 09:24:00,
2013-03-31 05:29:00,48.1,43.8,30.00,SSW,198,2.0,2.0,85,0.00,OVC,,0.00,WeatherDisplay:10.37,2013-03-31 09:29:00,
2013-03-31 05:34:00,48.2,43.9,30.00,SSW,197,3.5,3.5,85,0.00,OVC,,0.00,WeatherDisplay:10.37,2013-03-31 09:34:00,
2013-03-31 05:39:00,48.3,44.0,30.00,SSW,197,3.5,3.5,85,0.00,OVC,,0.00,WeatherDisplay:10.37,2013-03-31 09:39:00,
2013-03-31 05:44:00,48.4,44.1,30.00,South,180,6.0,6.0,85,0.00,OVC,,0.00,WeatherDisplay:10.37,2013-03-31 09:44:00,
2013-03-31 05:49:00,48.7,44.4,30.00,SE,132,5.8,5.8,85,0.00,OVC,,0.00,WeatherDisplay:10.37,2013-03-31 09:49:00,
2013-03-31 05:54:00,49.0,44.4,29.99,SE,128,4.6,4.6,84,0.00,OVC,,0.00,WeatherDisplay:10.37,2013-03-31 09:54:00,
2013-03-31 06:00:00,49.3,44.0,29.99,SE,139,4.6,4.6,82,0.00,OVC,,0.00,WeatherDisplay:10.37,2013-03-31 10:00:00,
2013-03-31 06:08:00,49.4,44.1,29.99,SE,132,10.0,0.0,82,0.00,CLR,,0.00,WeatherDisplay:10.37,2013-03-31 10:08:00,
2013-03-31 06:13:00,49.3,44.0,29.99,ESE,115,5.8,5.8,82,0.00,OVC,,0.00,WeatherDisplay:10.37,2013-03-31 10:13:00,
2013-03-31 06:18:00,49.3,44.0,29.99,ESE,119,4.6,4.6,82,0.00,OVC,,0.00,WeatherDisplay:10.37,2013-03-31 10:18:00,
2013-03-31 06:23:00,49.3,44.0,29.99,ESE,123,4.0,4.0,82,0.00,OVC,,0.00,WeatherDisplay:10.37,2013-03-31 10:23:00,
2013-03-31 06:28:00,49.3,44.0,29.99,SE,133,5.8,5.8,82,0.00,OVC,,0.00,WeatherDisplay:10.37,2013-03-31 10:28:00,
2013-03-31 06:33:00,49.3,44.0,29.99,SE,134,3.5,3.5,82,0.00,OVC,,0.00,WeatherDisplay:10.37,2013-03-31 10:33:00,
2013-03-31 06:38:00,49.3,44.7,30.00,SE,138,2.3,2.3,84,0.00,OVC,,0.00,WeatherDisplay:10.37,2013-03-31 10:38:00,
2013-03-31 06:43:00,49.2,44.9,30.01,SW,221,7.0,7.0,85,0.00,OVC,,0.00,WeatherDisplay:10.37,2013-03-31 10:43:00,
2013-03-31 06:48:00,48.9,44.9,30.02,SW,220,3.5,3.5,86,0.00,OVC,,0.00,WeatherDisplay:10.37,2013-03-31 10:48:00,
2013-03-31 06:53:00,48.6,44.9,30.02,SW,220,2.3,2.3,87,0.00,OVC,,0.00,WeatherDisplay:10.37,2013-03-31 10:53:00,
2013-03-31 06:58:00,48.3,44.9,30.02,SW,220,3.5,3.5,88,0.00,OVC,,0.00,WeatherDisplay:10.37,2013-03-31 10:58:00,
2013-03-31 07:03:00,48.2,44.8,30.02,SW,214,6.0,6.0,88,0.00,-RA,,0.00,WeatherDisplay:10.37,2013-03-31 11:03:00,
2013-03-31 07:08:00,48.2,44.8,30.02,SSW,209,4.6,4.6,88,0.00,-RA,,0.00,WeatherDisplay:10.37,2013-03-31 11:08:00,
2013-03-31 07:13:00,48.2,45.1,30.02,SSW,209,3.5,3.5,89,0.00,-RA,,0.01,WeatherDisplay:10.37,2013-03-31 11:13:00,
2013-03-31 07:18:00,48.0,44.9,30.02,SSW,209,3.5,3.5,89,0.02,-RA,,0.02,WeatherDisplay:10.37,2013-03-31 11:18:00,
2013-03-31 07:23:00,47.9,44.8,30.02,SSW,205,1.0,0.0,89,0.02,-RA,,0.03,WeatherDisplay:10.37,2013-03-31 11:23:00,
2013-03-31 07:28:00,47.7,45.2,30.02,SSW,205,4.0,4.0,91,0.04,-RA,,0.04,WeatherDisplay:10.37,2013-03-31 11:28:00,
2013-03-31 07:33:00,47.5,45.0,30.02,SSW,205,3.5,3.5,91,0.06,-RA,,0.06,WeatherDisplay:10.37,2013-03-31 11:33:00,
2013-03-31 07:38:00,47.4,45.2,30.02,SSW,205,3.5,0.0,92,0.07,-RA,,0.08,WeatherDisplay:10.37,2013-03-31 11:38:00,
2013-03-31 07:44:00,47.3,45.1,30.02,SSW,205,2.3,0.0,92,0.10,-RA,,0.10,WeatherDisplay:10.37,2013-03-31 11:44:00,
2013-03-31 07:49:00,47.2,45.3,30.02,SSW,205,3.5,3.5,93,0.11,-RA,,0.12,WeatherDisplay:10.37,2013-03-31 11:49:00,
2013-03-31 07:54:00,47.1,45.2,30.01,SSW,205,2.3,2.3,93,0.13,-RA,,0.13,WeatherDisplay:10.37,2013-03-31 11:54:00,
2013-03-31 07:59:00,47.1,45.2,30.01,SSW,205,4.0,4.0,93,0.14,-RA,,0.14,WeatherDisplay:10.37,2013-03-31 11:59:00,
2013-03-31 08:04:00,47.1,45.5,30.00,SSW,200,4.0,4.0,94,0.16,-RA,,0.16,WeatherDisplay:10.37,2013-03-31 12:04:00,
2013-03-31 08:09:00,47.0,45.4,29.99,South,173,5.0,5.0,94,0.17,-RA,,0.17,WeatherDisplay:10.37,2013-03-31 12:09:00,
2013-03-31 08:14:00,47.1,45.5,29.98,East,98,7.0,7.0,94,0.18,-RA,,0.18,WeatherDisplay:10.37,2013-03-31 12:14:00,
2013-03-31 08:19:00,47.1,45.5,29.97,ESE,121,10.4,10.4,94,0.17,-RA,,0.19,WeatherDisplay:10.37,2013-03-31 12:19:00,
2013-03-31 08:24:00,47.3,45.7,29.98,ESE,114,9.2,9.2,94,0.17,-RA,,0.19,WeatherDisplay:10.37,2013-03-31 12:24:00,
2013-03-31 08:29:00,47.5,46.1,29.97,SE,139,10.4,10.4,95,0.16,-RA,,0.20,WeatherDisplay:10.37,2013-03-31 12:29:00,
2013-03-31 08:34:00,47.7,46.3,29.97,SSE,168,6.9,6.9,95,0.15,-RA,,0.21,WeatherDisplay:10.37,2013-03-31 12:34:00,
2013-03-31 08:39:00,47.9,46.5,29.97,ESE,117,7.0,7.0,95,0.14,-RA,,0.22,WeatherDisplay:10.37,2013-03-31 12:39:00,
2013-03-31 08:44:00,48.0,46.6,29.97,SE,129,4.6,4.6,95,0.12,-RA,,0.22,WeatherDisplay:10.37,2013-03-31 12:44:00,
2013-03-31 08:49:00,48.1,46.7,29.98,SSW,198,6.0,6.0,95,0.11,-RA,,0.23,WeatherDisplay:10.37,2013-03-31 12:49:00,
2013-03-31 08:54:00,48.2,46.8,29.98,South,191,3.5,3.5,95,0.12,-RA,,0.25,WeatherDisplay:10.37,2013-03-31 12:54:00,
2013-03-31 09:00:00,48.4,47.0,29.97,SE,141,4.0,4.2,95,0.13,-RA,,0.27,WeatherDisplay:10.37,2013-03-31 13:00:00,
2013-03-31 09:05:00,48.5,47.1,29.97,SE,130,7.0,7.0,95,0.12,-RA,,0.28,WeatherDisplay:10.37,2013-03-31 13:05:00,
2013-03-31 09:10:00,48.6,47.2,29.97,SSE,159,4.6,4.6,95,0.13,-RA,,0.30,WeatherDisplay:10.37,2013-03-31 13:10:00,
2013-03-31 09:15:00,48.6,47.2,29.98,SSW,195,7.0,7.0,95,0.13,-RA,,0.32,WeatherDisplay:10.37,2013-03-31 13:15:00,
2013-03-31 09:20:00,48.7,47.6,29.97,South,188,4.0,4.0,96,0.14,-RA,,0.34,WeatherDisplay:10.37,2013-03-31 13:20:00,
2013-03-31 09:25:00,48.8,47.7,29.97,SE,129,5.8,5.8,96,0.16,-RA,,0.35,WeatherDisplay:10.37,2013-03-31 13:25:00,
2013-03-31 09:30:00,48.9,47.8,29.96,SSE,155,6.0,6.0,96,0.15,-RA,,0.35,WeatherDisplay:10.37,2013-03-31 13:30:00,
2013-03-31 09:35:00,49.0,47.9,29.96,SE,145,5.8,5.8,96,0.15,-RA,,0.36,WeatherDisplay:10.37,2013-03-31 13:35:00,
2013-03-31 09:40:00,49.0,47.9,29.96,South,186,5.8,5.8,96,0.14,-RA,,0.36,WeatherDisplay:10.37,2013-03-31 13:40:00,
2013-03-31 09:46:00,49.2,48.1,29.96,ESE,123,5.8,5.8,96,0.14,-RA,,0.36,WeatherDisplay:10.37,2013-03-31 13:46:00,
2013-03-31 09:51:00,49.3,48.2,29.96,South,185,3.5,3.5,96,0.12,-RA,,0.36,WeatherDisplay:10.37,2013-03-31 13:51:00,
2013-03-31 09:56:00,49.3,48.2,29.96,SSW,196,3.5,3.5,96,0.10,-RA,,0.36,WeatherDisplay:10.37,2013-03-31 13:56:00,
2013-03-31 10:01:00,49.5,48.4,29.95,South,172,6.9,6.9,96,0.09,OVC,,0.36,WeatherDisplay:10.37,2013-03-31 14:01:00,
2013-03-31 10:06:00,49.7,48.6,29.95,South,175,10.4,10.4,96,0.07,OVC,,0.36,WeatherDisplay:10.37,2013-03-31 14:06:00,
2013-03-31 10:11:00,49.9,48.8,29.95,South,169,5.0,5.0,96,0.07,RA,,0.37,WeatherDisplay:10.37,2013-03-31 14:11:00,
2013-03-31 10:17:00,50.0,48.9,29.94,SSW,206,7.0,7.0,96,0.04,OVC,,0.37,WeatherDisplay:10.37,2013-03-31 14:17:00,
2013-03-31 10:22:00,50.1,49.0,29.94,South,170,9.2,9.2,96,0.03,OVC,,0.37,WeatherDisplay:10.37,2013-03-31 14:22:00,
2013-03-31 10:27:00,50.3,49.2,29.93,South,177,10.4,10.4,96,0.02,OVC,,0.37,WeatherDisplay:10.37,2013-03-31 14:27:00,
2013-03-31 10:32:00,50.7,49.6,29.93,SW,215,10.4,10.4,96,0.02,RA,,0.38,WeatherDisplay:10.37,2013-03-31 14:32:00,
2013-03-31 10:37:00,51.2,50.7,29.93,SW,217,10.4,10.4,98,0.02,RA,,0.38,WeatherDisplay:10.37,2013-03-31 14:37:00,
2013-03-31 10:42:00,51.2,50.7,29.93,South,176,10.4,10.4,98,0.02,OVC,,0.38,WeatherDisplay:10.37,2013-03-31 14:42:00,
2013-03-31 10:47:00,51.6,51.1,29.93,South,188,7.0,7.0,98,0.02,OVC,,0.38,WeatherDisplay:10.37,2013-03-31 14:47:00,
2013-03-31 10:52:00,52.0,51.5,29.93,South,174,5.8,5.8,98,0.02,OVC,,0.38,WeatherDisplay:10.37,2013-03-31 14:52:00,
2013-03-31 10:57:00,52.0,51.5,29.93,SSE,163,11.5,11.5,98,0.02,OVC,,0.38,WeatherDisplay:10.37,2013-03-31 14:57:00,
2013-03-31 11:02:00,52.2,51.7,29.93,South,185,11.5,11.5,98,0.02,BKN,,0.38,WeatherDisplay:10.37,2013-03-31 15:02:00,
2013-03-31 11:07:00,52.6,52.1,29.93,SSW,207,9.0,9.0,98,0.01,BKN,,0.38,WeatherDisplay:10.37,2013-03-31 15:07:00,
2013-03-31 11:12:00,52.8,52.3,29.93,South,185,11.5,11.5,98,0.01,BKN,,0.38,WeatherDisplay:10.37,2013-03-31 15:12:00,
2013-03-31 11:17:00,53.0,52.5,29.93,South,169,5.8,5.8,98,0.01,BKN,,0.38,WeatherDisplay:10.37,2013-03-31 15:17:00,
2013-03-31 11:22:00,53.3,52.8,29.92,South,186,6.9,6.9,98,0.01,BKN,,0.38,WeatherDisplay:10.37,2013-03-31 15:22:00,
2013-03-31 11:27:00,53.5,52.9,29.92,South,175,11.5,11.5,98,0.01,BKN,,0.38,WeatherDisplay:10.37,2013-03-31 15:27:00,
2013-03-31 11:32:00,54.0,53.4,29.92,South,187,6.0,6.0,98,0.00,BKN,,0.38,WeatherDisplay:10.37,2013-03-31 15:32:00,
2013-03-31 11:37:00,54.7,54.1,29.92,South,188,7.0,7.0,98,0.00,BKN,,0.38,WeatherDisplay:10.37,2013-03-31 15:37:00,
2013-03-31 11:42:00,55.3,54.7,29.92,SW,215,5.8,5.8,98,0.00,BKN,,0.38,WeatherDisplay:10.37,2013-03-31 15:42:00,
2013-03-31 11:47:00,55.6,55.0,29.91,SSW,206,6.9,6.9,98,0.00,BKN,,0.38,WeatherDisplay:10.37,2013-03-31 15:47:00,
2013-03-31 11:53:00,56.0,55.4,29.91,SW,217,7.0,7.0,98,0.00,BKN,,0.38,WeatherDisplay:10.37,2013-03-31 15:53:00,
2013-03-31 11:58:00,57.0,56.4,29.91,SSW,199,11.5,11.5,98,0.00,BKN,,0.38,WeatherDisplay:10.37,2013-03-31 15:58:00,
2013-03-31 12:03:00,57.4,56.3,29.91,SW,219,16.1,16.1,96,0.00,BKN,,0.38,WeatherDisplay:10.37,2013-03-31 16:03:00,
2013-03-31 12:08:00,57.7,56.3,29.91,SW,221,11.5,11.5,95,0.00,BKN,,0.38,WeatherDisplay:10.37,2013-03-31 16:08:00,
2013-03-31 12:13:00,58.0,56.3,29.91,South,175,13.8,13.8,94,0.00,BKN,,0.38,WeatherDisplay:10.37,2013-03-31 16:13:00,
2013-03-31 12:18:00,58.0,56.0,29.91,SW,227,11.5,11.5,93,0.00,BKN,,0.38,WeatherDisplay:10.37,2013-03-31 16:18:00,
2013-03-31 12:23:00,57.8,55.5,29.91,SSW,206,6.9,6.9,92,0.00,BKN,,0.38,WeatherDisplay:10.37,2013-03-31 16:23:00,
2013-03-31 12:28:00,57.9,55.6,29.90,WSW,241,3.5,3.5,92,0.00,BKN,,0.38,WeatherDisplay:10.37,2013-03-31 16:28:00,
2013-03-31 12:33:00,58.2,55.9,29.90,SW,233,6.9,6.9,92,0.00,BKN,,0.38,WeatherDisplay:10.37,2013-03-31 16:33:00,
2013-03-31 12:38:00,58.3,56.0,29.89,SSW,211,7.0,7.0,92,0.00,BKN,,0.38,WeatherDisplay:10.37,2013-03-31 16:38:00,
2013-03-31 12:43:00,58.7,56.4,29.89,SW,233,6.0,6.0,92,0.00,BKN,,0.38,WeatherDisplay:10.37,2013-03-31 16:43:00,
2013-03-31 12:49:00,59.1,56.5,29.88,SSW,207,7.0,7.0,91,0.00,BKN,,0.38,WeatherDisplay:10.37,2013-03-31 16:49:00,
2013-03-31 12:54:00,59.5,56.3,29.89,SW,222,8.1,8.1,89,0.00,BKN,,0.38,WeatherDisplay:10.37,2013-03-31 16:54:00,
2013-03-31 12:59:00,59.7,56.5,29.88,SSW,201,9.2,9.2,89,0.00,BKN,,0.38,WeatherDisplay:10.37,2013-03-31 16:59:00,
2013-03-31 13:04:00,60.6,57.0,29.88,SSW,210,11.5,11.5,88,0.00,OVC,,0.38,WeatherDisplay:10.37,2013-03-31 17:04:00,
2013-03-31 13:09:00,61.1,57.2,29.87,SW,218,10.0,10.0,87,0.00,OVC,,0.38,WeatherDisplay:10.37,2013-03-31 17:09:00,
2013-03-31 13:14:00,62.0,57.8,29.87,SSW,196,11.5,11.5,86,0.00,OVC,,0.38,WeatherDisplay:10.37,2013-03-31 17:14:00,
2013-03-31 13:19:00,62.9,57.3,29.86,WSW,241,10.4,10.4,82,0.00,OVC,,0.38,WeatherDisplay:10.37,2013-03-31 17:19:00,
2013-03-31 13:24:00,63.7,57.8,29.86,West,272,12.7,12.7,81,0.00,OVC,,0.38,WeatherDisplay:10.37,2013-03-31 17:24:00,
2013-03-31 13:30:00,63.2,57.3,29.86,SE,145,11.5,11.5,81,0.00,OVC,,0.38,WeatherDisplay:10.37,2013-03-31 17:30:00,
2013-03-31 13:35:00,62.5,56.6,29.86,SW,215,14.0,14.0,81,0.00,OVC,,0.38,WeatherDisplay:10.37,2013-03-31 17:35:00,
2013-03-31 13:40:00,62.2,56.3,29.86,WSW,242,13.0,13.0,81,0.00,OVC,,0.38,WeatherDisplay:10.37,2013-03-31 17:40:00,
2013-03-31 13:45:00,62.2,56.6,29.86,WSW,256,10.0,10.0,82,0.00,OVC,,0.38,WeatherDisplay:10.37,2013-03-31 17:45:00,
2013-03-31 13:50:00,62.2,56.6,29.86,SW,232,11.5,11.5,82,0.00,OVC,,0.38,WeatherDisplay:10.37,2013-03-31 17:50:00,
2013-03-31 13:55:00,62.2,56.3,29.86,SW,233,5.8,5.8,81,0.00,OVC,,0.38,WeatherDisplay:10.37,2013-03-31 17:55:00,
2013-03-31 14:00:00,62.2,56.3,29.86,WSW,240,9.2,9.2,81,0.00,OVC,,0.38,WeatherDisplay:10.37,2013-03-31 18:00:00,
2013-03-31 14:05:00,62.1,56.5,29.86,West,275,6.0,6.0,82,0.00,BKN,,0.38,WeatherDisplay:10.37,2013-03-31 18:05:00,
2013-03-31 14:10:00,61.9,56.3,29.85,SSW,205,8.1,8.1,82,0.00,BKN,,0.38,WeatherDisplay:10.37,2013-03-31 18:10:00,
2013-03-31 14:15:00,62.3,56.7,29.85,WNW,288,9.2,9.2,82,0.00,BKN,,0.38,WeatherDisplay:10.37,2013-03-31 18:15:00,
2013-03-31 14:20:00,62.9,57.0,29.84,South,190,6.9,6.9,81,0.00,BKN,,0.38,WeatherDisplay:10.37,2013-03-31 18:20:00,
2013-03-31 14:25:00,64.0,57.4,29.84,SSW,212,13.8,13.8,79,0.00,BKN,,0.38,WeatherDisplay:10.37,2013-03-31 18:25:00,
2013-03-31 14:30:00,65.2,58.2,29.83,SSW,200,16.0,16.0,78,0.00,BKN,,0.38,WeatherDisplay:10.37,2013-03-31 18:30:00,
2013-03-31 14:35:00,65.6,57.5,29.83,SSW,207,15.0,15.0,75,0.00,BKN,,0.38,WeatherDisplay:10.37,2013-03-31 18:35:00,
2013-03-31 14:40:00,65.9,57.7,29.83,SW,234,13.8,13.8,75,0.00,BKN,,0.38,WeatherDisplay:10.37,2013-03-31 18:40:00,
2013-03-31 14:45:00,65.8,57.7,29.83,SSW,211,13.0,13.0,75,0.00,BKN,,0.38,WeatherDisplay:10.37,2013-03-31 18:45:00,
2013-03-31 14:50:00,65.6,57.5,29.83,WSW,243,11.5,11.5,75,0.00,BKN,,0.38,WeatherDisplay:10.37,2013-03-31 18:50:00,
2013-03-31 14:56:00,66.2,57.3,29.83,SW,225,15.0,15.0,73,0.00,BKN,,0.38,WeatherDisplay:10.37,2013-03-31 18:56:00,
2013-03-31 15:01:00,66.7,57.8,29.83,SSW,213,22.0,22.0,73,0.00,BKN,,0.38,WeatherDisplay:10.37,2013-03-31 19:01:00,
2013-03-31 15:06:00,66.7,57.0,29.82,SW,219,23.0,23.0,71,0.00,BKN,,0.38,WeatherDisplay:10.37,2013-03-31 19:06:00,
2013-03-31 15:11:00,66.5,56.4,29.82,SSW,202,15.0,15.0,70,0.00,BKN,,0.38,WeatherDisplay:10.37,2013-03-31 19:11:00,
2013-03-31 15:16:00,66.2,56.5,29.82,SSW,210,20.7,20.7,71,0.00,BKN,,0.38,WeatherDisplay:10.37,2013-03-31 19:16:00,
2013-03-31 15:21:00,66.1,56.4,29.82,WSW,241,9.2,9.2,71,0.00,BKN,,0.38,WeatherDisplay:10.37,2013-03-31 19:21:00,
2013-03-31 15:26:00,66.1,56.4,29.82,SW,225,11.5,11.5,71,0.00,BKN,,0.38,WeatherDisplay:10.37,2013-03-31 19:26:00,
2013-03-31 15:31:00,66.3,57.4,29.82,SW,232,6.9,6.9,73,0.00,BKN,,0.38,WeatherDisplay:10.37,2013-03-31 19:31:00,
2013-03-31 15:36:00,66.5,56.8,29.82,WSW,258,11.5,11.5,71,0.00,BKN,,0.38,WeatherDisplay:10.37,2013-03-31 19:36:00,
2013-03-31 15:42:00,66.5,56.8,29.82,SSW,211,4.6,4.6,71,0.00,BKN,,0.38,WeatherDisplay:10.37,2013-03-31 19:42:00,
2013-03-31 15:47:00,66.3,56.6,29.82,SSW,208,12.7,12.7,71,0.00,BKN,,0.38,WeatherDisplay:10.37,2013-03-31 19:47:00,
2013-03-31 15:52:00,66.2,56.5,29.82,SW,234,3.5,3.5,71,0.00,BKN,,0.38,WeatherDisplay:10.37,2013-03-31 19:52:00,
2013-03-31 15:57:00,66.4,57.1,29.82,SSW,207,11.5,11.5,72,0.00,BKN,,0.38,WeatherDisplay:10.37,2013-03-31 19:57:00,
2013-03-31 16:03:00,66.4,56.7,29.82,SW,220,10.0,10.0,71,0.00,OVC,,0.38,WeatherDisplay:10.37,2013-03-31 20:03:00,
2013-03-31 16:08:00,67.0,56.9,29.82,West,261,13.0,13.0,70,0.00,OVC,,0.38,WeatherDisplay:10.37,2013-03-31 20:08:00,
2013-03-31 16:13:00,67.5,57.0,29.82,WNW,292,15.0,15.0,69,0.00,OVC,,0.38,WeatherDisplay:10.37,2013-03-31 20:13:00,
2013-03-31 16:18:00,67.3,56.8,29.82,WSW,244,17.3,17.3,69,0.00,OVC,,0.38,WeatherDisplay:10.37,2013-03-31 20:18:00,
2013-03-31 16:23:00,66.7,55.4,29.82,WSW,246,12.7,12.7,67,0.00,OVC,,0.38,WeatherDisplay:10.37,2013-03-31 20:23:00,
2013-03-31 16:28:00,66.4,55.9,29.83,West,267,5.8,5.8,69,0.00,OVC,,0.38,WeatherDisplay:10.37,2013-03-31 20:28:00,
2013-03-31 16:34:00,66.3,55.8,29.83,WSW,247,5.8,5.8,69,0.00,OVC,,0.38,WeatherDisplay:10.37,2013-03-31 20:34:00,
2013-03-31 16:39:00,66.3,55.8,29.83,WNW,296,12.0,12.0,69,0.00,OVC,,0.38,WeatherDisplay:10.37,2013-03-31 20:39:00,
2013-03-31 16:44:00,66.2,55.7,29.83,SSW,206,10.4,10.4,69,0.00,OVC,,0.38,WeatherDisplay:10.37,2013-03-31 20:44:00,
2013-03-31 16:49:00,66.2,55.7,29.83,SW,235,9.2,9.2,69,0.00,OVC,,0.38,WeatherDisplay:10.37,2013-03-31 20:49:00,
2013-03-31 16:54:00,66.2,56.1,29.82,SW,226,14.0,14.0,70,0.00,OVC,,0.38,WeatherDisplay:10.37,2013-03-31 20:54:00,
2013-03-31 16:59:00,66.1,56.0,29.82,WSW,258,6.9,6.9,70,0.00,OVC,,0.38,WeatherDisplay:10.37,2013-03-31 20:59:00,
2013-03-31 17:04:00,66.0,56.3,29.82,West,265,9.0,9.0,71,0.00,OVC,,0.38,WeatherDisplay:10.37,2013-03-31 21:04:00,
2013-03-31 17:09:00,65.9,55.8,29.82,SW,229,4.6,4.6,70,0.00,OVC,,0.38,WeatherDisplay:10.37,2013-03-31 21:09:00,
2013-03-31 17:14:00,65.8,55.3,29.82,West,278,10.4,10.4,69,0.00,OVC,,0.38,WeatherDisplay:10.37,2013-03-31 21:14:00,
2013-03-31 17:20:00,65.8,55.7,29.82,SW,229,5.0,5.0,70,0.00,OVC,,0.38,WeatherDisplay:10.37,2013-03-31 21:20:00,
2013-03-31 17:25:00,65.9,55.8,29.82,WSW,253,10.4,10.4,70,0.00,OVC,,0.38,WeatherDisplay:10.37,2013-03-31 21:25:00,
2013-03-31 17:30:00,66.1,56.0,29.81,West,274,4.0,4.0,70,0.00,OVC,,0.38,WeatherDisplay:10.37,2013-03-31 21:30:00,
2013-03-31 17:35:00,66.1,56.0,29.81,WSW,253,10.0,10.0,70,0.00,OVC,,0.38,WeatherDisplay:10.37,2013-03-31 21:35:00,
2013-03-31 17:40:00,66.1,56.4,29.81,SW,233,3.5,3.5,71,0.00,OVC,,0.38,WeatherDisplay:10.37,2013-03-31 21:40:00,
2013-03-31 17:45:00,65.9,55.8,29.81,SW,225,9.0,9.0,70,0.00,OVC,,0.38,WeatherDisplay:10.37,2013-03-31 21:45:00,
2013-03-31 17:50:00,65.9,55.8,29.81,WSW,246,5.0,5.0,70,0.00,OVC,,0.38,WeatherDisplay:10.37,2013-03-31 21:50:00,
2013-03-31 17:55:00,65.9,55.8,29.81,WSW,253,5.0,5.0,70,0.00,OVC,,0.38,WeatherDisplay:10.37,2013-03-31 21:55:00,
2013-03-31 18:00:00,65.8,55.7,29.80,SW,225,6.9,6.9,70,0.00,OVC,,0.38,WeatherDisplay:10.37,2013-03-31 22:00:00,
2013-03-31 18:05:00,65.7,56.4,29.80,SW,236,4.0,4.0,72,0.00,OVC,,0.38,WeatherDisplay:10.37,2013-03-31 22:05:00,
2013-03-31 18:10:00,65.7,56.0,29.81,SW,228,6.9,6.9,71,0.00,OVC,,0.38,WeatherDisplay:10.37,2013-03-31 22:10:00,
2013-03-31 18:15:00,65.7,56.0,29.80,WSW,245,4.6,4.6,71,0.00,OVC,,0.38,WeatherDisplay:10.37,2013-03-31 22:15:00,
2013-03-31 18:20:00,65.5,56.2,29.80,WSW,246,0.0,0.0,72,0.00,OVC,,0.38,WeatherDisplay:10.37,2013-03-31 22:20:00,
2013-03-31 18:26:00,65.3,55.7,29.81,WSW,250,6.0,6.0,71,0.00,OVC,,0.38,WeatherDisplay:10.37,2013-03-31 22:26:00,
2013-03-31 18:31:00,65.2,55.2,29.81,SW,221,5.8,5.8,70,0.00,OVC,,0.38,WeatherDisplay:10.37,2013-03-31 22:31:00,
2013-03-31 18:36:00,64.9,55.3,29.81,SW,228,4.0,4.0,71,0.00,OVC,,0.38,WeatherDisplay:10.37,2013-03-31 22:36:00,
2013-03-31 18:41:00,64.5,55.3,29.81,SW,224,2.3,0.0,72,0.00,OVC,,0.38,WeatherDisplay:10.37,2013-03-31 22:41:00,
2013-03-31 18:46:00,64.3,55.1,29.81,SW,236,3.5,3.5,72,0.00,OVC,,0.38,WeatherDisplay:10.37,2013-03-31 22:46:00,
2013-03-31 18:51:00,64.1,54.9,29.81,SW,235,3.5,3.5,72,0.00,OVC,,0.38,WeatherDisplay:10.37,2013-03-31 22:51:00,
2013-03-31 18:57:00,63.6,54.8,29.81,SW,234,0.0,0.1,73,0.00,OVC,,0.38,WeatherDisplay:10.37,2013-03-31 22:57:00,
2013-03-31 19:02:00,63.1,55.4,29.82,SW,235,2.3,2.3,76,0.00,OVC,,0.38,WeatherDisplay:10.37,2013-03-31 23:02:00,
2013-03-31 19:07:00,62.1,55.2,29.82,SW,235,0.0,0.0,78,0.00,OVC,,0.38,WeatherDisplay:10.37,2013-03-31 23:07:00,
2013-03-31 19:12:00,61.6,55.0,29.82,SW,235,0.0,0.0,79,0.00,OVC,,0.38,WeatherDisplay:10.37,2013-03-31 23:12:00,
2013-03-31 19:17:00,60.9,55.0,29.82,SW,234,0.0,0.0,81,0.00,OVC,,0.38,WeatherDisplay:10.37,2013-03-31 23:17:00,
2013-03-31 19:22:00,60.4,54.9,29.82,SW,235,0.0,0.0,82,0.00,OVC,,0.38,WeatherDisplay:10.37,2013-03-31 23:22:00,
2013-03-31 19:27:00,59.7,54.9,29.82,SW,234,0.0,0.0,84,0.00,OVC,,0.38,WeatherDisplay:10.37,2013-03-31 23:27:00,
2013-03-31 19:32:00,59.5,55.0,29.82,SW,234,1.0,1.0,85,0.00,OVC,,0.38,WeatherDisplay:10.37,2013-03-31 23:32:00,
2013-03-31 19:37:00,58.9,54.7,29.82,SW,234,0.0,0.0,86,0.00,OVC,,0.38,WeatherDisplay:10.37,2013-03-31 23:37:00,
2013-03-31 19:43:00,58.6,54.7,29.81,SW,234,0.0,0.0,87,0.00,OVC,,0.38,WeatherDisplay:10.37,2013-03-31 23:43:00,
2013-03-31 19:48:00,58.3,54.4,29.81,SW,235,0.0,0.0,87,0.00,OVC,,0.38,WeatherDisplay:10.37,2013-03-31 23:48:00,
2013-03-31 19:53:00,58.2,54.7,29.81,SW,235,0.0,0.0,88,0.00,OVC,,0.38,WeatherDisplay:10.37,2013-03-31 23:53:00,
2013-03-31 19:58:00,58.1,54.6,29.82,SW,234,0.0,0.0,88,0.00,OVC,,0.38,WeatherDisplay:10.37,2013-03-31 23:58:00,
2013-03-31 20:03:00,57.9,54.7,29.82,SW,235,0.0,0.0,89,0.00,OVC,,0.38,WeatherDisplay:10.37,2013-04-01 00:03:00,
2013-03-31 20:08:00,57.7,54.5,29.81,SW,234,0.0,0.0,89,0.00,OVC,,0.38,WeatherDisplay:10.37,2013-04-01 00:08:00,
2013-03-31 20:13:00,57.5,54.9,29.82,SW,235,0.0,0.0,91,0.00,OVC,,0.38,WeatherDisplay:10.37,2013-04-01 00:13:00,
2013-03-31 20:18:00,57.5,54.9,29.82,SW,234,0.0,0.0,91,0.00,OVC,,0.38,WeatherDisplay:10.37,2013-04-01 00:18:00,
2013-03-31 20:23:00,57.4,54.8,29.83,SW,235,0.0,0.0,91,0.00,OVC,,0.38,WeatherDisplay:10.37,2013-04-01 00:23:00,
2013-03-31 20:29:00,57.5,55.2,29.83,SW,235,0.0,0.0,92,0.00,OVC,,0.38,WeatherDisplay:10.37,2013-04-01 00:29:00,
2013-03-31 20:34:00,57.6,55.3,29.83,SW,234,0.0,0.0,92,0.00,OVC,,0.38,WeatherDisplay:10.37,2013-04-01 00:34:00,
2013-03-31 20:39:00,57.7,55.4,29.84,SW,235,1.1,0.0,92,0.00,OVC,,0.38,WeatherDisplay:10.37,2013-04-01 00:39:00,
2013-03-31 20:44:00,57.7,55.4,29.84,SW,235,0.0,0.0,92,0.00,OVC,,0.38,WeatherDisplay:10.37,2013-04-01 00:44:00,
2013-03-31 20:49:00,57.6,55.3,29.84,SW,234,0.0,0.0,92,0.00,OVC,,0.38,WeatherDisplay:10.37,2013-04-01 00:49:00,
2013-03-31 20:54:00,57.5,55.5,29.84,SSW,210,5.0,5.0,93,0.00,OVC,,0.38,WeatherDisplay:10.37,2013-04-01 00:54:00,
2013-03-31 20:59:00,57.6,55.6,29.85,SSW,200,10.4,10.4,93,0.00,OVC,,0.38,WeatherDisplay:10.37,2013-04-01 00:59:00,
2013-03-31 21:15:00,58.3,56.3,29.86,SW,214,10.4,0.0,93,0.04,RA,,0.42,WeatherDisplay:10.37,2013-04-01 01:15:00,
2013-03-31 21:20:00,58.0,56.0,29.86,SSW,195,9.0,9.0,93,0.05,RA,,0.43,WeatherDisplay:10.37,2013-04-01 01:20:00,
2013-03-31 21:25:00,57.8,55.8,29.86,SW,216,6.9,6.9,93,0.06,RA,,0.44,WeatherDisplay:10.37,2013-04-01 01:25:00,
2013-03-31 21:30:00,57.7,55.7,29.86,WSW,240,6.0,6.0,93,0.07,RA,,0.45,WeatherDisplay:10.37,2013-04-01 01:30:00,
2013-03-31 21:35:00,57.5,55.8,29.86,WSW,241,3.5,3.5,94,0.08,RA,,0.46,WeatherDisplay:10.37,2013-04-01 01:35:00,
2013-03-31 21:40:00,57.2,55.5,29.85,SSW,204,5.8,5.8,94,0.09,RA,,0.48,WeatherDisplay:10.37,2013-04-01 01:40:00,
2013-03-31 21:45:00,57.1,55.4,29.85,SSW,203,3.5,3.5,94,0.11,RA,,0.49,WeatherDisplay:10.37,2013-04-01 01:45:00,
2013-03-31 21:50:00,56.9,55.2,29.85,SSW,204,0.0,0.0,94,0.12,RA,,0.50,WeatherDisplay:10.37,2013-04-01 01:50:00,
2013-03-31 21:55:00,56.8,55.1,29.84,SSW,203,3.5,3.5,94,0.12,RA,,0.50,WeatherDisplay:10.37,2013-04-01 01:55:00,
2013-03-31 22:00:00,56.6,55.2,29.84,SSW,204,0.0,0.0,95,0.13,RA,,0.51,WeatherDisplay:10.37,2013-04-01 02:00:00,
2013-03-31 22:05:00,56.5,55.1,29.84,SSW,204,1.1,1.1,95,0.11,RA,,0.51,WeatherDisplay:10.37,2013-04-01 02:05:00,
2013-03-31 22:10:00,56.4,55.0,29.84,SSW,203,1.0,0.0,95,0.10,OVC,,0.51,WeatherDisplay:10.37,2013-04-01 02:10:00,
2013-03-31 22:15:00,56.2,54.8,29.84,SSW,200,2.3,2.3,95,0.09,OVC,,0.51,WeatherDisplay:10.37,2013-04-01 02:15:00,
2013-03-31 22:21:00,56.1,54.7,29.84,SSW,201,1.0,1.0,95,0.08,OVC,,0.51,WeatherDisplay:10.37,2013-04-01 02:21:00,
2013-03-31 22:26:00,56.3,55.2,29.85,South,190,3.5,3.5,96,0.07,OVC,,0.51,WeatherDisplay:10.37,2013-04-01 02:26:00,
2013-03-31 22:31:00,56.3,55.2,29.85,South,190,0.0,0.0,96,0.06,OVC,,0.51,WeatherDisplay:10.37,2013-04-01 02:31:00,
2013-03-31 22:36:00,56.2,55.1,29.86,South,190,3.5,3.5,96,0.04,OVC,,0.51,WeatherDisplay:10.37,2013-04-01 02:36:00,
2013-03-31 22:41:00,56.1,55.0,29.85,South,190,4.0,4.0,96,0.03,OVC,,0.51,WeatherDisplay:10.37,2013-04-01 02:41:00,
2013-03-31 22:46:00,56.1,55.0,29.85,South,190,3.5,3.5,96,0.02,OVC,,0.51,WeatherDisplay:10.37,2013-04-01 02:46:00,
2013-03-31 22:52:00,56.2,55.1,29.85,South,190,3.5,3.5,96,0.01,OVC,,0.51,WeatherDisplay:10.37,2013-04-01 02:52:00,
2013-03-31 22:57:00,56.2,55.1,29.85,South,190,3.0,3.0,96,0.00,OVC,,0.51,WeatherDisplay:10.37,2013-04-01 02:57:00,
2013-03-31 23:02:00,56.2,55.1,29.84,South,190,3.5,3.5,96,0.00,OVC,,0.51,WeatherDisplay:10.37,2013-04-01 03:02:00,
2013-03-31 23:07:00,56.2,55.1,29.84,South,182,4.6,4.6,96,0.00,OVC,,0.51,WeatherDisplay:10.37,2013-04-01 03:07:00,
2013-03-31 23:12:00,56.2,55.1,29.84,South,178,4.6,4.6,96,0.01,RA,,0.52,WeatherDisplay:10.37,2013-04-01 03:12:00,
2013-03-31 23:17:00,56.3,55.7,29.83,SSE,159,3.5,3.5,98,0.01,RA,,0.52,WeatherDisplay:10.37,2013-04-01 03:17:00,
2013-03-31 23:22:00,56.2,55.6,29.84,South,171,2.3,0.0,98,0.01,OVC,,0.52,WeatherDisplay:10.37,2013-04-01 03:22:00,
2013-03-31 23:27:00,56.1,55.0,29.84,South,177,3.5,3.5,96,0.01,OVC,,0.52,WeatherDisplay:10.37,2013-04-01 03:27:00,
2013-03-31 23:32:00,56.0,54.9,29.84,South,182,4.6,4.6,96,0.01,OVC,,0.52,WeatherDisplay:10.37,2013-04-01 03:32:00,
2013-03-31 23:38:00,55.9,54.8,29.84,SSW,212,4.6,4.6,96,0.01,OVC,,0.52,WeatherDisplay:10.37,2013-04-01 03:38:00,
2013-03-31 23:43:00,55.8,54.7,29.84,SW,224,2.0,2.0,96,0.01,OVC,,0.52,WeatherDisplay:10.37,2013-04-01 03:43:00,
2013-03-31 23:48:00,55.8,55.2,29.84,SW,224,0.0,0.0,98,0.01,OVC,,0.52,WeatherDisplay:10.37,2013-04-01 03:48:00,
2013-03-31 23:53:00,55.6,55.0,29.84,SW,223,0.0,0.0,98,0.01,OVC,,0.52,WeatherDisplay:10.37,2013-04-01 03:53:00,
2013-03-31 23:58:00,55.2,54.1,29.84,SW,224,0.0,0.0,96,0.01,OVC,,0.52,WeatherDisplay:10.37,2013-04-01 03:58:00,